Time;durP1;ratioP1;P1;durP2;ratioP2;P2;SDS_P1;SDS_P2;PMS_P1;PMS_P2;Temp;Humidity;BMP_temperature;BMP_pressure;BME280_temperature;BME280_humidity;BME280_pressure;Samples;Min_cycle;Max_cycle;Signal;HPM_P1;HPM_P2
2022/02/02 00:00:19;;;;;;;20.77;4.28;;;;;;;6.57;100.00;100621.16;689601;28;1291;-51
2022/02/02 00:00:40;;;;;;;20.92;4.20;;;;;;;6.55;100.00;100616.78;689559;28;1282;-53
2022/02/02 00:01:02;;;;;;;23.60;4.80;;;;;;;6.52;100.00;100614.19;689396;28;1656;-51
2022/02/02 00:01:38;;;;;;;22.75;4.43;;;;;;;6.53;100.00;100621.13;688963;28;4801;-54
2022/02/02 00:02:09;;;;;;;21.50;4.10;;;;;;;6.64;100.00;100619.50;687818;28;1727;-53
2022/02/02 00:02:42;;;;;;;21.52;4.40;;;;;;;6.64;100.00;100616.91;693053;28;1255;-53
2022/02/02 00:03:10;;;;;;;20.90;4.00;;;;;;;6.60;100.00;100617.72;691919;28;1673;-54
2022/02/02 00:03:30;;;;;;;21.35;4.18;;;;;;;6.55;100.00;100609.91;692959;28;1268;-52
2022/02/02 00:03:53;;;;;;;23.40;4.43;;;;;;;6.61;100.00;100619.47;689634;28;2268;-52
2022/02/02 00:04:19;;;;;;;21.80;4.90;;;;;;;6.65;100.00;100606.53;691006;28;4860;-54
2022/02/02 00:04:45;;;;;;;20.65;4.28;;;;;;;6.63;100.00;100621.25;691313;28;3551;-51
2022/02/02 00:05:20;;;;;;;21.58;4.03;;;;;;;6.61;100.00;100611.69;691302;28;1824;-55
2022/02/02 00:06:02;;;;;;;24.48;4.32;;;;;;;6.58;100.00;100619.44;690810;28;1639;-55
2022/02/02 00:06:42;;;;;;;21.45;4.30;;;;;;;6.55;100.00;100615.09;688422;28;1831;-56
2022/02/02 00:08:49;;;;;;;23.85;4.25;;;;;;;6.55;100.00;100624.59;689827;28;1531;-53
2022/02/02 00:09:10;;;;;;;24.48;4.55;;;;;;;6.57;100.00;100615.09;689277;28;1446;-53
2022/02/02 00:09:31;;;;;;;19.30;4.38;;;;;;;6.59;100.00;100610.78;693441;28;1115;-54
2022/02/02 00:09:57;;;;;;;20.88;4.43;;;;;;;6.60;100.00;100612.53;689794;28;1626;-53
2022/02/02 00:10:45;;;;;;;25.90;4.65;;;;;;;6.57;100.00;100618.56;681160;28;4592;-56
2022/02/02 00:12:44;;;;;;;20.08;4.20;;;;;;;6.46;100.00;100615.84;686675;28;1494;-54
2022/02/02 00:13:12;;;;;;;22.30;4.07;;;;;;;6.53;100.00;100611.59;683463;28;4454;-53
2022/02/02 00:14:09;;;;;;;25.90;4.78;;;;;;;6.57;100.00;100618.56;684539;28;1553;-53
2022/02/02 00:15:43;;;;;;;20.02;4.32;;;;;;;6.52;100.00;100624.56;686085;28;1271;-59
2022/02/02 00:16:45;;;;;;;21.98;4.15;;;;;;;6.65;100.00;100636.84;676327;29;4536;-54
2022/02/02 00:17:19;;;;;;;19.38;4.43;;;;;;;6.69;100.00;100624.75;678340;28;1841;-51
2022/02/02 00:19:04;;;;;;;23.90;4.50;;;;;;;6.79;100.00;100624.00;676724;29;3196;-52
2022/02/02 00:20:12;;;;;;;23.58;4.32;;;;;;;6.82;100.00;100624.88;689899;28;1625;-52
2022/02/02 00:20:57;;;;;;;21.63;4.38;;;;;;;6.76;100.00;100629.16;689246;28;1056;-52
2022/02/02 00:21:24;;;;;;;19.42;3.90;;;;;;;6.67;100.00;100629.91;688924;28;3891;-51
2022/02/02 00:21:49;;;;;;;22.55;4.55;;;;;;;6.64;100.00;100635.09;689032;28;1532;-54
2022/02/02 00:22:16;;;;;;;18.92;4.50;;;;;;;6.61;100.00;100640.25;689194;28;4578;-51
2022/02/02 00:22:39;;;;;;;23.17;5.03;;;;;;;6.57;100.00;100639.34;688931;28;1306;-51
2022/02/02 00:23:02;;;;;;;20.40;4.90;;;;;;;6.55;100.00;100637.56;687110;28;1197;-52
2022/02/02 00:23:28;;;;;;;20.85;4.88;;;;;;;6.53;100.00;100647.94;685512;28;1809;-55
2022/02/02 00:23:53;;;;;;;23.38;4.53;;;;;;;6.55;100.00;100634.97;686131;28;1851;-52
2022/02/02 00:24:25;;;;;;;24.90;5.03;;;;;;;6.61;100.00;100645.47;685963;28;3134;-54
2022/02/02 00:25:43;;;;;;;22.50;4.22;;;;;;;6.61;100.00;100632.47;686159;28;1157;-54
2022/02/02 00:26:09;;;;;;;24.95;4.70;;;;;;;6.58;100.00;100641.09;686709;28;1371;-56
2022/02/02 00:26:35;;;;;;;25.23;4.68;;;;;;;6.56;100.00;100632.44;685052;28;1140;-52
2022/02/02 00:26:59;;;;;;;22.88;4.30;;;;;;;6.59;100.00;100631.56;683414;28;1991;-51
2022/02/02 00:27:22;;;;;;;22.42;4.40;;;;;;;6.66;100.00;100636.00;684757;28;4486;-56
2022/02/02 00:27:45;;;;;;;22.85;4.75;;;;;;;6.61;100.00;100635.91;686952;28;1732;-53
2022/02/02 00:28:07;;;;;;;23.10;4.95;;;;;;;6.58;100.00;100637.63;688414;28;4404;-55
2022/02/02 00:28:32;;;;;;;22.27;4.18;;;;;;;6.55;100.00;100640.16;686553;28;1901;-55
2022/02/02 00:28:58;;;;;;;23.70;4.93;;;;;;;6.52;100.00;100645.34;689562;28;1000;-53
2022/02/02 00:29:22;;;;;;;24.02;4.60;;;;;;;6.48;100.00;100647.91;688517;28;1123;-54
2022/02/02 00:29:51;;;;;;;23.15;4.80;;;;;;;6.52;100.00;100650.53;688732;28;1300;-53
2022/02/02 00:30:16;;;;;;;22.90;4.50;;;;;;;6.55;100.00;100653.16;683534;28;3780;-55
2022/02/02 00:30:38;;;;;;;20.48;4.40;;;;;;;6.55;100.00;100656.66;686732;28;1407;-52
2022/02/02 00:31:03;;;;;;;24.08;4.28;;;;;;;6.57;100.00;100654.06;688515;28;1131;-56
2022/02/02 00:31:30;;;;;;;28.25;4.75;;;;;;;6.67;100.00;100658.50;689591;28;4970;-54
2022/02/02 00:31:59;;;;;;;21.70;4.00;;;;;;;6.75;100.00;100656.84;688687;28;1108;-52
2022/02/02 00:32:36;;;;;;;22.67;3.83;;;;;;;6.71;100.00;100649.88;692215;28;1365;-51
2022/02/02 00:33:30;;;;;;;22.38;4.53;;;;;;;6.65;100.00;100653.28;691880;28;1501;-53
2022/02/02 00:33:57;;;;;;;23.90;4.65;;;;;;;6.76;100.00;100647.34;692426;28;1096;-52
2022/02/02 00:34:22;;;;;;;22.65;4.25;;;;;;;6.68;100.00;100649.84;689085;28;4604;-55
2022/02/02 00:34:43;;;;;;;21.85;3.92;;;;;;;6.68;100.00;100657.66;689745;28;1651;-56
2022/02/02 00:35:04;;;;;;;23.60;4.17;;;;;;;6.63;100.00;100659.31;688544;28;1614;-55
2022/02/02 00:35:33;;;;;;;21.95;4.60;;;;;;;6.71;100.00;100647.28;689619;28;4105;-52
2022/02/02 00:36:01;;;;;;;23.77;4.57;;;;;;;6.73;100.00;100653.38;688697;28;2261;-52
2022/02/02 00:36:25;;;;;;;22.62;4.60;;;;;;;6.69;100.00;100654.22;688953;28;1034;-52
2022/02/02 00:37:06;;;;;;;23.17;4.77;;;;;;;6.64;100.00;100661.94;687172;28;4367;-51
2022/02/02 00:37:26;;;;;;;21.02;4.32;;;;;;;6.60;100.00;100662.75;688232;28;1123;-51
2022/02/02 00:37:47;;;;;;;18.87;4.53;;;;;;;6.57;100.00;100660.13;690399;28;942;-53
2022/02/02 00:38:07;;;;;;;23.27;4.60;;;;;;;6.55;100.00;100656.66;687458;28;1553;-54
2022/02/02 00:38:27;;;;;;;23.63;4.60;;;;;;;6.54;100.00;100659.22;689584;28;3704;-53
2022/02/02 00:38:48;;;;;;;24.10;4.37;;;;;;;6.57;100.00;100654.94;689292;28;1315;-52
2022/02/02 00:39:08;;;;;;;23.43;4.60;;;;;;;6.58;100.00;100650.63;688039;28;3290;-54
2022/02/02 00:39:30;;;;;;;21.08;4.60;;;;;;;6.63;100.00;100654.13;688124;28;3771;-55
2022/02/02 00:39:50;;;;;;;19.58;4.63;;;;;;;6.73;100.00;100660.28;689571;28;1599;-56
2022/02/02 00:40:10;;;;;;;22.57;4.73;;;;;;;6.68;100.00;100656.78;689229;28;4465;-55
2022/02/02 00:40:31;;;;;;;25.03;4.40;;;;;;;6.66;100.00;100656.78;692306;28;1127;-54
2022/02/02 00:40:51;;;;;;;22.77;4.87;;;;;;;6.71;100.00;100654.22;691371;28;1025;-53
2022/02/02 00:41:12;;;;;;;22.38;4.80;;;;;;;6.70;100.00;100655.97;689341;28;3563;-52
2022/02/02 00:41:32;;;;;;;24.00;4.80;;;;;;;6.69;100.00;100659.41;688414;28;4010;-52
2022/02/02 00:41:56;;;;;;;20.80;4.90;;;;;;;6.69;100.00;100661.09;688352;28;1462;-52
2022/02/02 00:42:16;;;;;;;22.10;4.32;;;;;;;6.71;100.00;100662.88;692983;28;1273;-51
2022/02/02 00:42:36;;;;;;;24.13;3.83;;;;;;;6.74;100.00;100657.75;691485;28;1597;-56
2022/02/02 00:42:57;;;;;;;24.63;4.30;;;;;;;6.75;100.00;100669.00;692294;28;1864;-56
2022/02/02 00:43:17;;;;;;;20.38;4.13;;;;;;;6.69;100.00;100664.59;685606;28;4399;-54
2022/02/02 00:43:44;;;;;;;21.63;4.30;;;;;;;6.73;100.00;100668.97;686863;28;1502;-56
2022/02/02 00:44:05;;;;;;;25.20;4.43;;;;;;;6.73;100.00;100668.97;685719;28;2004;-54
2022/02/02 00:44:26;;;;;;;18.98;4.30;;;;;;;6.75;100.00;100663.78;686295;28;3560;-52
2022/02/02 00:44:53;;;;;;;21.88;4.65;;;;;;;6.77;100.00;100668.16;683396;28;2017;-53
2022/02/02 00:45:13;;;;;;;26.05;4.57;;;;;;;6.73;100.00;100671.56;685345;28;1275;-53
2022/02/02 00:45:43;;;;;;;25.23;4.50;;;;;;;6.65;100.00;100665.41;686352;28;1117;-52
2022/02/02 00:46:03;;;;;;;24.30;4.65;;;;;;;6.59;100.00;100662.72;685714;28;4457;-52
2022/02/02 00:46:25;;;;;;;26.95;4.68;;;;;;;6.54;100.00;100664.44;687518;28;1117;-54
2022/02/02 00:46:46;;;;;;;26.58;5.07;;;;;;;6.51;100.00;100659.16;689645;28;3908;-56
2022/02/02 00:47:07;;;;;;;22.55;4.78;;;;;;;6.49;100.00;100666.94;689535;28;1590;-53
2022/02/02 00:47:34;;;;;;;18.47;3.87;;;;;;;6.47;100.00;100666.94;688677;28;3922;-55
2022/02/02 00:47:54;;;;;;;23.60;4.68;;;;;;;6.42;100.00;100676.38;685978;28;1950;-54
2022/02/02 00:48:16;;;;;;;21.10;4.60;;;;;;;6.41;100.00;100677.25;687592;28;1472;-54
2022/02/02 00:48:36;;;;;;;23.75;4.20;;;;;;;6.43;100.00;100666.88;685852;28;1405;-55
2022/02/02 00:49:01;;;;;;;21.40;4.30;;;;;;;6.48;100.00;100663.50;686640;28;998;-55
2022/02/02 00:49:22;;;;;;;20.45;4.53;;;;;;;6.47;100.00;100674.72;688166;28;4511;-51
2022/02/02 00:49:42;;;;;;;24.17;4.65;;;;;;;6.49;100.00;100672.13;688795;28;3543;-54
2022/02/02 00:50:03;;;;;;;23.40;4.37;;;;;;;6.45;100.00;100670.34;689058;28;1544;-54
2022/02/02 00:50:24;;;;;;;20.60;4.20;;;;;;;6.43;100.00;100670.34;689573;28;4644;-56
2022/02/02 00:50:46;;;;;;;22.60;4.53;;;;;;;6.51;100.00;100670.44;687551;28;1589;-52
2022/02/02 00:51:07;;;;;;;23.33;4.45;;;;;;;6.52;100.00;100666.13;686263;28;1703;-52
2022/02/02 00:51:37;;;;;;;21.77;4.18;;;;;;;6.55;100.00;100672.22;686875;28;1219;-56
2022/02/02 00:51:58;;;;;;;21.75;4.43;;;;;;;6.56;100.00;100673.09;686029;28;1267;-55
2022/02/02 00:52:20;;;;;;;24.30;4.47;;;;;;;6.51;100.00;100679.94;686651;28;4254;-54
2022/02/02 00:52:42;;;;;;;23.50;4.70;;;;;;;6.56;100.00;100680.88;688391;28;3333;-53
2022/02/02 00:53:02;;;;;;;23.30;4.57;;;;;;;6.62;100.00;100673.19;688840;28;1445;-57
2022/02/02 00:53:23;;;;;;;22.67;4.70;;;;;;;6.64;100.00;100676.66;688529;28;1301;-54
2022/02/02 00:53:43;;;;;;;23.13;4.90;;;;;;;6.61;100.00;100679.22;690344;28;1455;-56
2022/02/02 00:54:04;;;;;;;22.83;4.30;;;;;;;6.58;100.00;100680.06;688297;28;1621;-55
2022/02/02 00:54:27;;;;;;;22.95;4.20;;;;;;;6.58;100.00;100668.81;689537;28;1366;-53
2022/02/02 00:54:47;;;;;;;23.25;4.28;;;;;;;6.54;100.00;100680.00;688753;28;1108;-53
2022/02/02 00:55:08;;;;;;;23.87;4.30;;;;;;;6.53;100.00;100678.25;688997;28;4446;-53
2022/02/02 00:55:28;;;;;;;21.67;4.05;;;;;;;6.50;100.00;100675.63;687268;28;3276;-56
2022/02/02 00:55:50;;;;;;;20.63;4.07;;;;;;;6.54;100.00;100674.81;688621;28;1386;-53
2022/02/02 00:56:11;;;;;;;18.17;3.90;;;;;;;6.65;100.00;100673.22;687676;28;1370;-61
2022/02/02 00:56:31;;;;;;;22.37;4.50;;;;;;;6.62;100.00;100680.97;686606;28;1289;-55
2022/02/02 00:56:52;;;;;;;21.20;3.97;;;;;;;6.61;100.00;100671.44;687365;28;947;-51
2022/02/02 00:57:13;;;;;;;19.83;4.07;;;;;;;6.58;100.00;100668.81;686465;28;1227;-54
2022/02/02 00:57:33;;;;;;;22.38;4.20;;;;;;;6.54;100.00;100665.28;687171;28;1207;-51
2022/02/02 00:57:54;;;;;;;21.10;4.30;;;;;;;6.52;100.00;100673.91;686756;28;1353;-55
2022/02/02 00:58:14;;;;;;;20.70;3.88;;;;;;;6.46;100.00;100683.38;687746;28;4306;-52
2022/02/02 00:58:36;;;;;;;23.73;4.37;;;;;;;6.43;100.00;100675.53;688367;28;1352;-54
2022/02/02 00:58:56;;;;;;;19.88;4.30;;;;;;;6.55;100.00;100679.13;688306;28;1146;-52
2022/02/02 00:59:18;;;;;;;19.37;4.20;;;;;;;6.55;100.00;100676.53;688610;28;1361;-56
2022/02/02 00:59:38;;;;;;;24.98;4.25;;;;;;;6.51;100.00;100679.94;689975;28;1139;-55
2022/02/02 00:59:59;;;;;;;24.37;4.23;;;;;;;6.50;100.00;100678.22;688044;28;1222;-52
2022/02/02 01:00:19;;;;;;;23.10;4.33;;;;;;;6.54;100.00;100674.81;689724;28;1202;-52
2022/02/02 01:00:40;;;;;;;19.88;4.10;;;;;;;6.58;100.00;100681.78;688935;28;1243;-54
2022/02/02 01:01:00;;;;;;;19.30;4.17;;;;;;;6.57;100.00;100686.09;688464;28;3035;-51
2022/02/02 01:01:24;;;;;;;20.92;4.53;;;;;;;6.55;100.00;100684.31;688466;28;4897;-53
2022/02/02 01:01:45;;;;;;;22.40;4.70;;;;;;;6.57;100.00;100687.84;689057;28;1310;-55
2022/02/02 01:02:06;;;;;;;23.35;4.35;;;;;;;6.58;100.00;100682.66;688999;28;957;-54
2022/02/02 01:02:27;;;;;;;22.40;4.60;;;;;;;6.55;100.00;100676.53;688784;28;1223;-53
2022/02/02 01:02:47;;;;;;;21.87;4.13;;;;;;;6.53;100.00;100683.44;689057;28;1207;-53
2022/02/02 01:03:07;;;;;;;20.40;4.03;;;;;;;6.56;100.00;100686.09;688253;28;1147;-54
2022/02/02 01:03:29;;;;;;;22.57;4.57;;;;;;;6.53;100.00;100686.91;688378;28;1282;-56
2022/02/02 01:03:49;;;;;;;26.17;4.93;;;;;;;6.51;100.00;100690.34;689114;28;1923;-55
2022/02/02 01:04:10;;;;;;;20.80;4.37;;;;;;;6.58;100.00;100687.00;689048;28;4587;-58
2022/02/02 01:04:30;;;;;;;20.15;4.45;;;;;;;6.62;100.00;100689.63;687670;28;1985;-54
2022/02/02 01:04:51;;;;;;;22.30;5.13;;;;;;;6.60;100.00;100688.72;689711;28;1490;-54
2022/02/02 01:05:13;;;;;;;21.97;4.67;;;;;;;6.65;100.00;100686.19;687405;28;1352;-55
2022/02/02 01:05:34;;;;;;;22.02;4.88;;;;;;;6.61;100.00;100687.03;687926;28;1252;-53
2022/02/02 01:05:54;;;;;;;21.53;4.43;;;;;;;6.53;100.00;100686.06;690206;28;1147;-51
2022/02/02 01:06:18;;;;;;;21.30;4.25;;;;;;;6.59;100.00;100689.59;692848;28;1075;-55
2022/02/02 01:06:44;;;;;;;21.58;4.63;;;;;;;6.65;100.00;100694.00;689983;28;3225;-52
2022/02/02 01:10:55;;;;;;;21.53;5.00;;;;;;;6.36;100.00;100689.31;683230;28;1271;-53
2022/02/02 01:13:08;;;;;;;21.48;4.45;;;;;;;6.41;100.00;100695.44;689557;28;1230;-51
2022/02/02 01:15:43;;;;;;;20.52;4.50;;;;;;;6.43;100.00;100687.66;692896;28;1083;-55
2022/02/02 01:17:16;;;;;;;21.08;4.63;;;;;;;6.28;100.00;100688.34;693163;28;891;-52
2022/02/02 01:19:02;;;;;;;22.08;4.82;;;;;;;6.29;100.00;100679.69;692011;28;4216;-53
2022/02/02 01:20:02;;;;;;;24.50;4.95;;;;;;;6.23;100.00;100671.81;688477;28;1192;-53
2022/02/02 01:20:48;;;;;;;22.50;4.53;;;;;;;6.27;100.00;100681.38;689151;28;1100;-56
2022/02/02 01:21:17;;;;;;;22.63;4.55;;;;;;;6.33;100.00;100671.09;687485;28;2038;-53
2022/02/02 01:21:56;;;;;;;23.60;4.35;;;;;;;6.39;100.00;100685.88;691297;28;1116;-52
2022/02/02 01:22:19;;;;;;;24.98;4.88;;;;;;;6.44;100.00;100681.63;691071;28;4652;-52
2022/02/02 01:27:50;;;;;;;24.48;5.32;;;;;;;6.30;100.00;100682.31;687939;28;1119;-51
2022/02/02 01:28:10;;;;;;;25.92;5.18;;;;;;;6.34;100.00;100682.34;687050;28;4433;-56
2022/02/02 01:28:32;;;;;;;27.37;5.37;;;;;;;6.39;100.00;100686.75;690528;28;1055;-54
2022/02/02 01:28:52;;;;;;;27.17;4.80;;;;;;;6.43;100.00;100675.53;686422;28;1350;-56
2022/02/02 01:29:12;;;;;;;26.73;5.27;;;;;;;6.41;100.00;100679.84;687087;28;1052;-52
2022/02/02 01:29:33;;;;;;;26.63;5.60;;;;;;;6.40;100.00;100678.09;687829;28;3535;-52
2022/02/02 01:29:53;;;;;;;26.47;5.40;;;;;;;6.42;100.00;100680.72;690017;28;1342;-55
2022/02/02 01:30:14;;;;;;;26.33;5.30;;;;;;;6.41;100.00;100678.97;689308;28;1035;-52
2022/02/02 01:30:34;;;;;;;22.77;4.57;;;;;;;6.38;100.00;100679.78;690075;28;1356;-54
2022/02/02 01:30:55;;;;;;;26.07;4.50;;;;;;;6.32;100.00;100682.31;691186;28;1162;-53
2022/02/02 01:31:16;;;;;;;24.45;4.50;;;;;;;6.33;100.00;100680.59;692743;28;4290;-52
2022/02/02 01:31:36;;;;;;;23.45;4.68;;;;;;;6.31;100.00;100685.78;691220;28;1186;-56
2022/02/02 01:31:57;;;;;;;26.27;5.00;;;;;;;6.26;100.00;100687.47;692131;28;1107;-54
2022/02/02 01:32:18;;;;;;;23.17;4.82;;;;;;;6.24;100.00;100689.16;692601;28;3315;-52
2022/02/02 01:32:38;;;;;;;22.27;4.80;;;;;;;6.21;100.00;100691.72;692331;28;1557;-55
2022/02/02 01:32:59;;;;;;;22.00;4.50;;;;;;;6.17;100.00;100682.13;692582;28;972;-53
2022/02/02 01:33:19;;;;;;;22.67;4.70;;;;;;;6.14;100.00;100686.41;692550;28;1151;-56
2022/02/02 01:33:39;;;;;;;22.20;4.80;;;;;;;6.11;100.00;100681.19;690719;28;1672;-53
2022/02/02 01:34:00;;;;;;;21.85;4.35;;;;;;;6.10;100.00;100678.56;692152;28;1079;-58
2022/02/02 01:34:20;;;;;;;27.03;4.87;;;;;;;6.11;100.00;100686.38;692799;28;4349;-55
2022/02/02 01:34:41;;;;;;;23.02;4.78;;;;;;;6.13;100.00;100682.09;689688;28;1550;-58
2022/02/02 01:35:04;;;;;;;20.87;4.50;;;;;;;6.13;100.00;100682.09;689440;28;3291;-52
2022/02/02 01:35:26;;;;;;;23.65;4.32;;;;;;;6.12;100.00;100688.13;688751;28;1013;-54
2022/02/02 01:35:47;;;;;;;22.08;4.63;;;;;;;6.09;100.00;100682.00;689351;28;1010;-51
2022/02/02 01:36:09;;;;;;;25.77;4.93;;;;;;;6.12;100.00;100684.69;689348;28;1071;-54
2022/02/02 01:36:29;;;;;;;25.13;5.03;;;;;;;6.10;100.00;100684.63;690376;28;1076;-53
2022/02/02 01:36:49;;;;;;;25.80;4.87;;;;;;;6.09;100.00;100687.19;690140;28;1120;-56
2022/02/02 01:37:10;;;;;;;25.67;4.93;;;;;;;6.08;100.00;100681.16;688708;28;4361;-53
2022/02/02 01:37:31;;;;;;;26.85;5.18;;;;;;;6.13;100.00;100686.41;689336;28;1092;-55
2022/02/02 01:37:52;;;;;;;27.38;4.63;;;;;;;6.10;100.00;100684.63;688835;28;3265;-52
2022/02/02 01:38:13;;;;;;;25.55;5.15;;;;;;;6.09;100.00;100687.19;689981;28;2909;-55
2022/02/02 01:38:35;;;;;;;26.73;4.95;;;;;;;6.07;100.00;100684.59;689802;28;1099;-54
2022/02/02 01:38:57;;;;;;;24.92;4.88;;;;;;;6.07;100.00;100686.31;692228;28;1036;-55
2022/02/02 01:39:20;;;;;;;25.85;4.85;;;;;;;6.07;100.00;100684.59;691517;28;3874;-54
2022/02/02 01:39:40;;;;;;;25.52;4.70;;;;;;;6.08;100.00;100686.34;692069;28;1130;-55
2022/02/02 01:40:07;;;;;;;25.47;4.30;;;;;;;6.11;100.00;100681.19;689108;28;1246;-52
2022/02/02 01:40:33;;;;;;;24.65;4.78;;;;;;;6.09;100.00;100688.09;687797;28;5343;-52
2022/02/02 01:40:59;;;;;;;25.77;5.05;;;;;;;6.07;100.00;100682.00;686213;28;3498;-53
2022/02/02 01:41:25;;;;;;;26.42;4.68;;;;;;;6.05;100.00;100683.72;686509;28;1431;-55
2022/02/02 01:41:47;;;;;;;25.38;4.53;;;;;;;6.04;100.00;100687.16;686107;28;1672;-55
2022/02/02 01:42:11;;;;;;;26.35;4.25;;;;;;;6.03;100.00;100688.00;689601;28;956;-53
2022/02/02 01:42:41;;;;;;;24.35;4.78;;;;;;;6.03;100.00;100687.13;689591;28;1040;-53
2022/02/02 01:43:25;;;;;;;24.58;4.88;;;;;;;6.03;100.00;100685.41;692249;28;1266;-55
2022/02/02 01:43:53;;;;;;;27.80;5.00;;;;;;;6.05;100.00;100691.50;686661;28;6866;-53
2022/02/02 01:44:29;;;;;;;25.30;5.05;;;;;;;6.04;100.00;100686.28;687123;28;3695;-54
2022/02/02 01:44:59;;;;;;;23.15;4.95;;;;;;;6.02;100.00;100700.94;686697;28;977;-53
2022/02/02 01:45:29;;;;;;;27.35;5.00;;;;;;;6.00;100.00;100708.72;686439;28;989;-56
2022/02/02 01:46:03;;;;;;;28.27;4.80;;;;;;;5.99;100.00;100706.97;690339;28;995;-55
2022/02/02 01:46:27;;;;;;;23.83;4.72;;;;;;;6.00;100.00;100703.53;690147;28;4850;-55
2022/02/02 01:46:49;;;;;;;26.23;4.80;;;;;;;6.01;100.00;100704.38;691729;28;975;-53
2022/02/02 01:47:11;;;;;;;23.02;4.95;;;;;;;6.08;100.00;100704.50;692215;28;979;-52
2022/02/02 01:47:41;;;;;;;25.73;5.35;;;;;;;6.10;100.00;100710.56;690220;28;1333;-51
2022/02/02 01:48:13;;;;;;;26.63;5.15;;;;;;;6.07;100.00;100710.53;690266;28;1206;-52
2022/02/02 01:50:10;;;;;;;25.45;4.63;;;;;;;6.05;100.00;100706.19;691826;28;1017;-52
2022/02/02 01:50:53;;;;;;;29.48;4.65;;;;;;;6.05;100.00;100703.59;690669;28;929;-54
2022/02/02 01:52:38;;;;;;;22.17;5.37;;;;;;;6.03;100.00;100695.78;690858;28;2012;-54
2022/02/02 01:53:47;;;;;;;25.40;5.25;;;;;;;6.09;100.00;100708.84;692366;28;1048;-52
2022/02/02 01:54:29;;;;;;;26.17;5.10;;;;;;;6.11;100.00;100701.09;689458;28;1345;-53
2022/02/02 01:54:58;;;;;;;25.80;4.95;;;;;;;6.11;100.00;100701.09;687576;28;3457;-53
2022/02/02 01:55:28;;;;;;;30.52;5.57;;;;;;;6.08;100.00;100707.09;688143;28;4347;-56
2022/02/02 01:55:50;;;;;;;30.67;5.43;;;;;;;6.09;100.00;100703.66;689629;28;1131;-54
2022/02/02 01:56:14;;;;;;;26.52;4.90;;;;;;;6.14;100.00;100699.38;689943;28;1091;-54
2022/02/02 01:56:35;;;;;;;25.83;4.93;;;;;;;6.17;100.00;100698.56;689075;28;1029;-56
2022/02/02 01:56:56;;;;;;;25.90;5.17;;;;;;;6.15;100.00;100697.69;689715;28;1246;-56
2022/02/02 01:58:21;;;;;;;24.88;5.00;;;;;;;6.14;100.00;100699.38;688917;28;2730;-55
2022/02/02 01:59:40;;;;;;;24.48;5.10;;;;;;;6.05;100.00;100701.88;692348;28;1056;-52
2022/02/02 02:00:01;;;;;;;26.00;4.88;;;;;;;6.03;100.00;100700.09;691795;28;1036;-53
2022/02/02 02:00:21;;;;;;;23.80;4.90;;;;;;;6.02;100.00;100691.44;689962;28;1124;-55
2022/02/02 02:00:41;;;;;;;26.50;5.10;;;;;;;6.01;100.00;100705.28;689420;28;3636;-52
2022/02/02 02:01:03;;;;;;;26.20;5.10;;;;;;;6.00;100.00;100700.06;686464;28;1660;-53
2022/02/02 02:01:23;;;;;;;30.08;5.28;;;;;;;5.99;100.00;100704.38;684377;28;4843;-53
2022/02/02 02:01:43;;;;;;;30.00;5.75;;;;;;;5.97;100.00;100698.25;684012;28;1062;-52
2022/02/02 02:02:08;;;;;;;25.43;5.40;;;;;;;5.99;100.00;100693.13;685225;28;1274;-53
2022/02/02 02:02:29;;;;;;;27.55;5.32;;;;;;;5.97;100.00;100693.06;687029;28;1507;-55
2022/02/02 02:02:49;;;;;;;28.77;5.80;;;;;;;6.03;100.00;100689.72;687442;28;1235;-55
2022/02/02 02:03:09;;;;;;;28.13;6.32;;;;;;;6.03;100.00;100689.72;689219;28;1198;-57
2022/02/02 02:03:30;;;;;;;26.83;6.07;;;;;;;6.03;100.00;100700.97;692356;28;1976;-52
2022/02/02 02:03:50;;;;;;;27.33;5.30;;;;;;;6.03;100.00;100703.56;692484;28;1042;-54
2022/02/02 02:04:10;;;;;;;25.87;5.23;;;;;;;6.05;100.00;100701.00;691976;28;4392;-53
2022/02/02 02:04:31;;;;;;;25.85;5.38;;;;;;;6.12;100.00;100705.44;692312;28;1918;-55
2022/02/02 02:04:51;;;;;;;25.23;5.10;;;;;;;6.11;100.00;100716.66;692596;28;1131;-55
2022/02/02 02:05:12;;;;;;;26.33;5.20;;;;;;;6.10;100.00;100715.78;692322;28;1381;-51
2022/02/02 02:05:32;;;;;;;25.30;5.13;;;;;;;6.17;100.00;100710.69;692356;28;1120;-57
2022/02/02 02:05:52;;;;;;;27.27;4.65;;;;;;;6.24;100.00;100715.09;692225;28;1158;-55
2022/02/02 02:06:13;;;;;;;22.63;5.20;;;;;;;6.23;100.00;100710.75;691805;28;3838;-56
2022/02/02 02:06:33;;;;;;;23.48;5.07;;;;;;;6.20;100.00;100710.72;689412;28;1267;-55
2022/02/02 02:06:54;;;;;;;25.80;5.00;;;;;;;6.16;100.00;100712.38;689040;28;3522;-56
2022/02/02 02:07:14;;;;;;;20.67;4.53;;;;;;;6.16;100.00;100719.31;686197;28;4572;-56
2022/02/02 02:07:35;;;;;;;23.45;4.63;;;;;;;6.12;100.00;100706.31;685520;28;916;-54
2022/02/02 02:07:55;;;;;;;25.38;4.75;;;;;;;6.09;100.00;100710.56;686489;28;896;-53
2022/02/02 02:08:16;;;;;;;26.00;5.53;;;;;;;6.07;100.00;100704.50;686422;28;1113;-51
2022/02/02 02:08:40;;;;;;;25.77;5.38;;;;;;;6.03;100.00;100706.16;685030;28;973;-55
2022/02/02 02:09:00;;;;;;;23.98;5.13;;;;;;;6.03;100.00;100702.69;687250;28;1957;-53
2022/02/02 02:09:25;;;;;;;24.87;4.77;;;;;;;6.02;100.00;100707.00;689140;28;2297;-52
2022/02/02 02:09:45;;;;;;;22.33;4.68;;;;;;;6.03;100.00;100710.50;689683;28;1139;-54
2022/02/02 02:10:06;;;;;;;22.27;4.88;;;;;;;6.05;100.00;100701.00;686558;28;4624;-53
2022/02/02 02:10:26;;;;;;;23.93;5.13;;;;;;;6.05;100.00;100701.88;689317;28;850;-54
2022/02/02 02:10:47;;;;;;;26.20;4.90;;;;;;;6.08;100.00;100706.25;689225;28;1065;-52
2022/02/02 02:11:14;;;;;;;22.73;5.27;;;;;;;6.08;100.00;100696.72;688122;28;1123;-54
2022/02/02 02:11:36;;;;;;;24.92;5.05;;;;;;;6.09;100.00;100702.78;689167;28;909;-52
2022/02/02 02:11:59;;;;;;;26.98;5.13;;;;;;;6.04;100.00;100710.50;690917;28;3451;-53
2022/02/02 02:12:20;;;;;;;22.52;4.68;;;;;;;6.05;100.00;100706.19;691053;28;1065;-54
2022/02/02 02:12:49;;;;;;;24.02;4.57;;;;;;;6.03;100.00;100703.56;692526;28;1054;-55
2022/02/02 02:13:34;;;;;;;25.05;4.97;;;;;;;6.02;100.00;100706.13;690792;28;4333;-55
2022/02/02 02:14:35;;;;;;;24.77;5.05;;;;;;;6.00;100.00;100700.94;691976;28;997;-51
2022/02/02 02:14:47;;;;;;;21.67;4.57;;;;;;;6.05;100.00;100701.88;692038;28;3445;-54
2022/02/02 02:15:10;;;;;;;25.20;4.63;;;;;;;6.07;100.00;100710.53;689487;28;1035;-52
2022/02/02 02:15:31;;;;;;;25.17;4.60;;;;;;;6.08;100.00;100714.03;689863;28;3661;-55
2022/02/02 02:15:52;;;;;;;25.52;5.57;;;;;;;6.11;100.00;100703.69;690157;28;780;-52
2022/02/02 02:16:12;;;;;;;25.53;5.07;;;;;;;6.13;100.00;100708.06;691170;28;4419;-53
2022/02/02 02:16:33;;;;;;;27.60;4.97;;;;;;;6.16;100.00;100719.31;690192;28;985;-56
2022/02/02 02:16:53;;;;;;;23.73;5.00;;;;;;;6.14;100.00;100707.19;690572;28;787;-53
2022/02/02 02:17:14;;;;;;;23.40;4.65;;;;;;;6.20;100.00;100713.31;690716;28;912;-51
2022/02/02 02:17:34;;;;;;;25.95;4.95;;;;;;;6.22;100.00;100709.03;692361;28;3412;-52
2022/02/02 02:17:57;;;;;;;27.47;5.13;;;;;;;6.24;100.00;100709.91;690445;28;1268;-53
2022/02/02 02:18:18;;;;;;;25.92;5.10;;;;;;;6.23;100.00;100705.56;689145;28;1185;-56
2022/02/02 02:18:38;;;;;;;25.08;5.25;;;;;;;6.38;100.00;100713.56;690685;28;897;-55
2022/02/02 02:18:59;;;;;;;25.03;4.77;;;;;;;6.39;100.00;100701.47;689915;28;1037;-53
2022/02/02 02:19:22;;;;;;;21.88;4.78;;;;;;;6.39;100.00;100701.47;689397;28;4397;-55
2022/02/02 02:19:49;;;;;;;26.17;4.97;;;;;;;6.33;100.00;100703.97;690080;28;1018;-56
2022/02/02 02:20:11;;;;;;;23.63;4.70;;;;;;;6.25;100.00;100690.91;688126;28;1213;-56
2022/02/02 02:20:32;;;;;;;28.75;4.65;;;;;;;6.24;100.00;100702.13;686910;28;3595;-56
2022/02/02 02:20:53;;;;;;;24.70;4.90;;;;;;;6.20;100.00;100697.75;686643;28;1020;-55
2022/02/02 02:21:16;;;;;;;23.10;4.37;;;;;;;6.25;100.00;100699.53;686604;28;1059;-51
2022/02/02 02:21:36;;;;;;;23.20;4.50;;;;;;;6.30;100.00;100699.63;686308;28;1230;-55
2022/02/02 02:21:56;;;;;;;22.85;5.28;;;;;;;6.27;100.00;100696.97;687045;28;1041;-54
2022/02/02 02:22:22;;;;;;;24.00;5.00;;;;;;;6.24;100.00;100702.13;688550;28;4375;-56
2022/02/02 02:22:44;;;;;;;26.23;4.72;;;;;;;6.19;100.00;100699.47;692477;28;1382;-54